Time;durP1;ratioP1;P1;durP2;ratioP2;P2;SDS_P1;SDS_P2;PMS_P1;PMS_P2;Temp;Humidity;BMP_temperature;BMP_pressure;BME280_temperature;BME280_humidity;BME280_pressure;Samples;Min_cycle;Max_cycle;Signal;HPM_P1;HPM_P2
2021/05/02 00:01:05;;;;;;;21.87;19.50;;;10.60;99.90;;;;;;5133311;28;20237;-55
2021/05/02 00:03:33;;;;;;;22.20;19.70;;;10.60;99.90;;;;;;5133401;28;20198;-55
2021/05/02 00:06:00;;;;;;;21.10;18.80;;;10.50;99.90;;;;;;5133446;27;20199;-50
2021/05/02 00:08:27;;;;;;;22.87;19.40;;;10.40;99.90;;;;;;5137055;27;20218;-56
2021/05/02 00:10:55;;;;;;;23.30;19.13;;;10.40;99.90;;;;;;5137463;27;20198;-53
2021/05/02 00:13:23;;;;;;;22.33;19.03;;;10.30;99.90;;;;;;5137325;27;20226;-54
2021/05/02 00:15:50;;;;;;;22.47;19.43;;;10.30;99.90;;;;;;5137217;27;20325;-54
2021/05/02 00:18:18;;;;;;;22.73;19.17;;;10.30;99.90;;;;;;5137241;27;20282;-50
2021/05/02 00:20:47;;;;;;;23.77;20.17;;;10.20;99.90;;;;;;5137037;27;20872;-53
2021/05/02 00:23:14;;;;;;;25.37;20.30;;;10.20;99.90;;;;;;5137302;27;20285;-55
2021/05/02 00:25:42;;;;;;;22.20;19.43;;;10.10;99.90;;;;;;5137170;27;20210;-54
2021/05/02 00:28:10;;;;;;;22.80;19.83;;;10.20;99.90;;;;;;5137026;27;20223;-54
2021/05/02 00:30:37;;;;;;;23.83;20.30;;;10.10;99.90;;;;;;5136845;27;20302;-55
2021/05/02 00:33:04;;;;;;;24.43;20.40;;;10.10;99.90;;;;;;5136919;27;20198;-54
2021/05/02 00:35:31;;;;;;;23.90;20.93;;;10.00;99.90;;;;;;5137039;27;20285;-54
2021/05/02 00:37:58;;;;;;;24.93;20.53;;;10.00;99.90;;;;;;5136600;27;20608;-56
2021/05/02 00:40:31;;;;;;;24.83;20.07;;;10.00;99.90;;;;;;5136921;27;20227;-55
2021/05/02 00:43:02;;;;;;;25.57;21.03;;;10.00;99.90;;;;;;5136853;27;20183;-55
2021/05/02 00:45:38;;;;;;;27.30;22.00;;;9.90;99.90;;;;;;5136773;27;20270;-54
2021/05/02 00:48:09;;;;;;;28.17;22.70;;;9.80;99.90;;;;;;5136302;27;20212;-53
2021/05/02 00:50:48;;;;;;;25.73;21.33;;;9.80;99.90;;;;;;5136727;27;20187;-56
2021/05/02 00:53:23;;;;;;;25.43;21.30;;;9.80;99.90;;;;;;5136774;27;20273;-53
2021/05/02 00:55:57;;;;;;;23.30;20.43;;;9.80;99.90;;;;;;5136664;27;20218;-56
2021/05/02 00:58:36;;;;;;;24.47;20.83;;;9.80;99.90;;;;;;5136296;27;20183;-55
2021/05/02 01:01:06;;;;;;;23.70;20.50;;;9.80;99.90;;;;;;5136430;27;20183;-54
2021/05/02 01:03:34;;;;;;;24.17;20.60;;;9.80;99.90;;;;;;5136325;27;20230;-55
2021/05/02 01:06:08;;;;;;;23.97;19.87;;;9.80;99.90;;;;;;5130626;27;20350;-58
2021/05/02 01:08:36;;;;;;;27.77;21.67;;;9.70;99.90;;;;;;5136090;27;20310;-54
2021/05/02 01:11:05;;;;;;;24.40;20.30;;;9.70;99.90;;;;;;5136241;27;20203;-57
2021/05/02 01:13:37;;;;;;;28.27;22.27;;;9.80;99.90;;;;;;5135644;27;20639;-54
2021/05/02 01:16:07;;;;;;;26.63;21.60;;;9.70;99.90;;;;;;5135668;27;20753;-54
2021/05/02 01:18:36;;;;;;;26.50;22.07;;;9.70;99.90;;;;;;5134903;27;20202;-53
2021/05/02 01:21:05;;;;;;;30.13;22.40;;;9.70;99.90;;;;;;5136012;27;20234;-53
2021/05/02 01:23:35;;;;;;;25.57;20.10;;;9.80;99.90;;;;;;5118439;27;20294;-53
2021/05/02 01:26:02;;;;;;;27.17;22.67;;;9.80;99.90;;;;;;5115483;28;20209;-54
2021/05/02 01:28:29;;;;;;;26.07;21.20;;;9.70;99.90;;;;;;5115530;28;20226;-54
2021/05/02 01:30:57;;;;;;;28.30;22.17;;;9.80;99.90;;;;;;5115456;28;20250;-56
2021/05/02 01:33:24;;;;;;;24.80;21.47;;;9.80;99.90;;;;;;5115291;28;20196;-54
2021/05/02 01:35:51;;;;;;;26.97;22.60;;;9.80;99.90;;;;;;5115851;28;20203;-54
2021/05/02 01:38:20;;;;;;;25.90;21.17;;;9.90;99.90;;;;;;5119729;27;20195;-55
2021/05/02 01:40:48;;;;;;;26.33;22.70;;;9.70;99.90;;;;;;5135859;27;20199;-54
2021/05/02 01:43:14;;;;;;;26.10;21.40;;;9.70;99.90;;;;;;5135216;27;20667;-54
2021/05/02 01:45:41;;;;;;;27.07;22.13;;;9.60;99.90;;;;;;5135696;27;20626;-55
2021/05/02 01:48:10;;;;;;;26.67;22.37;;;9.50;99.90;;;;;;5135536;27;20307;-53
2021/05/02 01:50:41;;;;;;;26.63;22.27;;;9.60;99.90;;;;;;5135730;27;20248;-53
2021/05/02 01:53:08;;;;;;;26.60;20.93;;;9.60;99.90;;;;;;5135586;27;20258;-55
2021/05/02 01:55:37;;;;;;;28.63;22.10;;;9.60;99.90;;;;;;5135464;27;20199;-50
2021/05/02 01:58:07;;;;;;;26.93;21.73;;;9.50;99.90;;;;;;5135304;27;20290;-52
2021/05/02 02:00:45;;;;;;;26.90;22.17;;;9.50;99.90;;;;;;5135474;27;20252;-51
2021/05/02 02:03:12;;;;;;;28.70;23.40;;;9.40;99.90;;;;;;5134930;27;20281;-54
2021/05/02 02:05:40;;;;;;;27.33;21.63;;;9.30;99.90;;;;;;5134823;27;20603;-53
2021/05/02 02:08:09;;;;;;;28.30;23.57;;;9.30;99.90;;;;;;5135195;27;20282;-52
2021/05/02 02:10:37;;;;;;;28.80;22.47;;;9.30;99.90;;;;;;5134868;27;20635;-51
2021/05/02 02:13:08;;;;;;;31.93;24.70;;;9.30;99.90;;;;;;5135057;27;20673;-53
2021/05/02 02:15:36;;;;;;;28.07;22.70;;;9.20;99.90;;;;;;5134738;27;20234;-54
2021/05/02 02:18:04;;;;;;;28.10;23.10;;;9.20;99.90;;;;;;5134843;27;20205;-55
2021/05/02 02:20:37;;;;;;;29.53;23.30;;;9.10;99.90;;;;;;5134985;27;20234;-55
2021/05/02 02:23:08;;;;;;;28.30;22.27;;;9.20;99.90;;;;;;5134681;27;20274;-55
2021/05/02 02:25:41;;;;;;;27.57;23.00;;;9.20;99.90;;;;;;5134919;27;20214;-50
2021/05/02 02:28:12;;;;;;;28.23;23.23;;;9.30;99.90;;;;;;5134703;27;20269;-51
2021/05/02 02:30:42;;;;;;;27.83;22.23;;;9.30;99.90;;;;;;5134647;27;20285;-52
2021/05/02 02:33:09;;;;;;;28.20;22.93;;;9.40;99.90;;;;;;5134523;27;20201;-52
2021/05/02 02:35:41;;;;;;;29.70;23.13;;;9.30;99.90;;;;;;5134322;27;20200;-57
2021/05/02 02:38:09;;;;;;;27.93;23.10;;;9.30;99.90;;;;;;5131608;27;20295;-53
2021/05/02 02:40:38;;;;;;;27.40;21.83;;;9.20;99.90;;;;;;5113955;28;20203;-51
2021/05/02 02:43:06;;;;;;;26.80;21.70;;;9.10;99.90;;;;;;5113582;28;20638;-52
2021/05/02 02:45:37;;;;;;;26.60;22.27;;;9.00;99.90;;;;;;5113580;28;20205;-52
2021/05/02 02:48:06;;;;;;;26.03;22.53;;;9.20;99.90;;;;;;5113784;28;20271;-53
2021/05/02 02:50:34;;;;;;;27.77;21.97;;;9.10;99.90;;;;;;5113771;28;20199;-52
2021/05/02 02:53:05;;;;;;;26.73;21.53;;;9.20;99.90;;;;;;5113529;28;20199;-52
2021/05/02 02:55:38;;;;;;;26.13;21.40;;;9.20;99.90;;;;;;5113384;28;20199;-53
2021/05/02 02:58:06;;;;;;;27.93;21.77;;;9.20;99.90;;;;;;5114170;28;20215;-53
2021/05/02 03:00:35;;;;;;;26.37;22.20;;;9.20;99.90;;;;;;5113727;28;20655;-54
2021/05/02 03:03:07;;;;;;;27.30;22.90;;;9.20;99.90;;;;;;5113485;28;20207;-54
2021/05/02 03:05:36;;;;;;;27.70;22.30;;;9.10;99.90;;;;;;5113670;28;20179;-52
2021/05/02 03:08:04;;;;;;;27.37;21.70;;;9.10;99.90;;;;;;5113110;28;20290;-53
2021/05/02 03:10:32;;;;;;;26.87;22.00;;;9.20;99.90;;;;;;5113436;28;20233;-51
2021/05/02 03:13:00;;;;;;;25.67;21.63;;;9.00;99.90;;;;;;5113326;28;20312;-52
2021/05/02 03:15:27;;;;;;;26.40;22.33;;;9.00;99.90;;;;;;5124787;27;20226;-55
2021/05/02 03:18:02;;;;;;;25.40;21.07;;;8.80;99.90;;;;;;5133525;27;20202;-54
2021/05/02 03:20:33;;;;;;;26.87;21.33;;;8.80;99.90;;;;;;5133931;27;20591;-53
2021/05/02 03:23:06;;;;;;;26.43;22.00;;;8.90;99.90;;;;;;5133524;27;20179;-54
2021/05/02 03:25:36;;;;;;;25.47;19.60;;;8.80;99.90;;;;;;5133150;27;20251;-54
2021/05/02 03:28:05;;;;;;;26.17;21.03;;;8.90;99.90;;;;;;5133017;27;20286;-50
2021/05/02 03:30:34;;;;;;;24.43;20.93;;;8.80;99.90;;;;;;5133612;27;20226;-50
2021/05/02 03:33:05;;;;;;;26.27;21.60;;;8.80;99.90;;;;;;5133299;27;20584;-53
2021/05/02 03:35:34;;;;;;;25.20;20.60;;;8.70;99.90;;;;;;5133888;27;20588;-51
2021/05/02 03:38:11;;;;;;;27.87;22.33;;;8.70;99.90;;;;;;5133603;27;20305;-53
2021/05/02 03:40:38;;;;;;;25.40;20.03;;;8.70;99.90;;;;;;5133421;28;20221;-52
2021/05/02 03:43:06;;;;;;;26.50;21.70;;;8.70;99.90;;;;;;5132938;27;20199;-52
2021/05/02 03:45:33;;;;;;;27.73;22.17;;;8.70;99.90;;;;;;5133734;28;20271;-53
2021/05/02 03:48:01;;;;;;;27.67;22.60;;;8.70;99.90;;;;;;5133539;28;20201;-53
2021/05/02 03:50:28;;;;;;;29.00;23.07;;;8.70;99.90;;;;;;5133111;28;20572;-55
2021/05/02 03:52:55;;;;;;;29.50;22.37;;;8.70;99.90;;;;;;5133298;28;20202;-52
2021/05/02 03:55:22;;;;;;;26.40;22.07;;;8.60;99.90;;;;;;5133448;28;20255;-54
2021/05/02 03:57:48;;;;;;;27.27;22.47;;;8.70;99.90;;;;;;5133290;28;20555;-53
2021/05/02 04:00:17;;;;;;;28.73;22.00;;;8.70;99.90;;;;;;5133517;28;20298;-54
2021/05/02 04:02:43;;;;;;;28.93;22.53;;;8.60;99.90;;;;;;5133054;28;20205;-52
2021/05/02 04:05:12;;;;;;;30.13;23.47;;;8.60;99.90;;;;;;5133204;28;20289;-54
2021/05/02 04:07:39;;;;;;;33.20;23.37;;;8.60;99.90;;;;;;5133379;28;20286;-52
2021/05/02 04:10:07;;;;;;;27.93;22.23;;;8.70;99.90;;;;;;5133480;28;20214;-54
2021/05/02 04:12:34;;;;;;;27.77;22.60;;;8.80;99.90;;;;;;5133400;28;20607;-55
2021/05/02 04:15:00;;;;;;;28.47;22.97;;;8.80;99.90;;;;;;5133206;28;20263;-53
2021/05/02 04:17:27;;;;;;;28.77;22.97;;;8.90;99.90;;;;;;5133283;28;20201;-55
2021/05/02 04:19:55;;;;;;;26.50;21.23;;;8.90;99.90;;;;;;5132832;28;20203;-55
2021/05/02 04:22:23;;;;;;;27.70;21.83;;;8.80;99.90;;;;;;5133268;28;20463;-52
2021/05/02 04:24:50;;;;;;;28.77;22.57;;;8.80;99.90;;;;;;5132880;28;20674;-53
2021/05/02 04:27:17;;;;;;;29.83;23.83;;;8.80;99.90;;;;;;5133099;28;20255;-53
2021/05/02 04:29:44;;;;;;;31.30;23.50;;;8.90;99.90;;;;;;5133005;28;20258;-54
2021/05/02 04:32:11;;;;;;;29.40;23.40;;;8.90;99.90;;;;;;5133202;28;20198;-55
2021/05/02 04:34:39;;;;;;;28.73;23.07;;;8.90;99.90;;;;;;5133017;28;20198;-54
2021/05/02 04:37:06;;;;;;;32.57;23.67;;;8.90;99.90;;;;;;5132887;28;20709;-53
2021/05/02 04:39:34;;;;;;;31.33;23.53;;;8.80;99.90;;;;;;5132809;28;20199;-53
2021/05/02 04:42:01;;;;;;;28.57;22.97;;;8.90;99.90;;;;;;5132960;28;20205;-51
2021/05/02 04:44:28;;;;;;;33.97;24.17;;;8.90;99.90;;;;;;5132956;28;20294;-52
2021/05/02 04:46:55;;;;;;;29.77;24.57;;;8.90;99.90;;;;;;5132983;28;20207;-53
2021/05/02 04:49:22;;;;;;;32.37;25.43;;;8.80;99.90;;;;;;5132769;28;20322;-51
2021/05/02 04:51:49;;;;;;;33.93;26.10;;;8.60;99.90;;;;;;5132160;28;20643;-53
2021/05/02 04:54:16;;;;;;;33.60;25.47;;;8.70;99.90;;;;;;5134079;27;20198;-55
2021/05/02 04:56:44;;;;;;;33.30;25.13;;;8.70;99.90;;;;;;5136509;27;20281;-50
2021/05/02 04:59:11;;;;;;;30.47;24.07;;;8.90;99.90;;;;;;5136221;27;20729;-54
2021/05/02 05:01:39;;;;;;;28.57;23.13;;;8.90;99.90;;;;;;5136342;27;20202;-53
2021/05/02 05:04:06;;;;;;;32.77;25.57;;;8.90;99.90;;;;;;5135918;27;20293;-53
2021/05/02 05:06:34;;;;;;;31.60;24.40;;;8.80;99.90;;;;;;5136091;27;20203;-52
2021/05/02 05:09:01;;;;;;;30.33;24.20;;;8.90;99.90;;;;;;5136231;27;20314;-54
2021/05/02 05:11:28;;;;;;;30.43;24.13;;;8.90;99.90;;;;;;5135959;27;20234;-55
2021/05/02 05:13:56;;;;;;;29.97;23.33;;;9.00;99.90;;;;;;5136145;27;20221;-55
2021/05/02 05:16:23;;;;;;;30.37;24.27;;;9.00;99.90;;;;;;5136005;27;20329;-55
2021/05/02 05:18:50;;;;;;;29.40;23.43;;;9.10;99.90;;;;;;5135686;27;20203;-55
2021/05/02 05:21:17;;;;;;;30.03;23.27;;;9.20;99.90;;;;;;5135988;27;20282;-54
2021/05/02 05:23:44;;;;;;;27.83;23.03;;;9.30;99.90;;;;;;5136130;27;20285;-53
2021/05/02 05:26:11;;;;;;;27.20;22.93;;;9.40;99.90;;;;;;5135446;27;20285;-54
2021/05/02 05:28:37;;;;;;;27.73;22.57;;;9.40;99.90;;;;;;5135790;27;20677;-53
2021/05/02 05:31:05;;;;;;;27.77;22.43;;;9.30;99.90;;;;;;5135570;27;20202;-55
2021/05/02 05:33:32;;;;;;;28.17;22.97;;;9.30;99.90;;;;;;5135629;27;20199;-55
2021/05/02 05:35:59;;;;;;;25.43;21.60;;;9.30;99.90;;;;;;5135747;27;20226;-54
2021/05/02 05:38:26;;;;;;;23.53;20.37;;;9.40;99.90;;;;;;5135379;27;20213;-53
2021/05/02 05:40:53;;;;;;;25.97;21.20;;;9.40;99.90;;;;;;5135522;27;20711;-54
2021/05/02 05:43:20;;;;;;;23.43;20.17;;;9.30;99.90;;;;;;5135459;27;20289;-53
2021/05/02 05:45:48;;;;;;;26.33;20.53;;;9.40;99.90;;;;;;5135614;27;20650;-51
2021/05/02 05:48:17;;;;;;;24.53;19.73;;;9.30;99.90;;;;;;5135383;27;20199;-53
2021/05/02 05:50:47;;;;;;;22.97;19.40;;;9.40;99.90;;;;;;5135320;27;20325;-51
2021/05/02 05:53:15;;;;;;;23.17;19.13;;;9.50;99.90;;;;;;5135223;27;20213;-54
2021/05/02 05:55:42;;;;;;;21.53;18.50;;;9.60;99.90;;;;;;5135440;27;20195;-52
2021/05/02 05:58:09;;;;;;;22.30;18.37;;;9.60;99.90;;;;;;5135352;27;20198;-53
2021/05/02 06:00:35;;;;;;;18.83;16.37;;;9.70;99.90;;;;;;5135295;27;20729;-54
2021/05/02 06:03:03;;;;;;;18.70;16.63;;;9.70;99.90;;;;;;5134987;27;20564;-53
2021/05/02 06:05:31;;;;;;;18.13;15.93;;;9.70;99.90;;;;;;5134571;27;20275;-52
2021/05/02 06:07:58;;;;;;;18.60;15.90;;;9.60;99.90;;;;;;5135042;27;20202;-52
2021/05/02 06:10:25;;;;;;;18.10;15.70;;;9.70;99.90;;;;;;5134683;27;20250;-52
2021/05/02 06:12:54;;;;;;;16.03;14.33;;;9.60;99.90;;;;;;5134862;27;20626;-52
2021/05/02 06:15:21;;;;;;;14.87;13.27;;;9.60;99.90;;;;;;5134538;27;20234;-53
2021/05/02 06:17:48;;;;;;;14.60;13.10;;;9.60;99.90;;;;;;5134694;27;20293;-54
2021/05/02 06:20:15;;;;;;;12.63;11.33;;;9.70;99.90;;;;;;5134969;27;20233;-55
2021/05/02 06:22:43;;;;;;;12.23;10.93;;;9.70;99.90;;;;;;5134413;27;20194;-55
2021/05/02 06:25:11;;;;;;;11.57;10.40;;;9.70;99.90;;;;;;5134466;27;20203;-53
2021/05/02 06:27:38;;;;;;;11.23;10.07;;;9.80;99.90;;;;;;5134854;27;20655;-56
2021/05/02 06:30:06;;;;;;;12.00;10.73;;;9.80;99.90;;;;;;5134328;27;20223;-53
2021/05/02 06:32:33;;;;;;;12.10;10.80;;;9.80;99.90;;;;;;5134199;27;20206;-54
2021/05/02 06:35:01;;;;;;;12.30;10.97;;;9.70;99.90;;;;;;5133916;27;20555;-54
2021/05/02 06:37:27;;;;;;;11.50;10.20;;;9.70;99.90;;;;;;5134560;27;20707;-57
2021/05/02 06:39:56;;;;;;;12.40;11.10;;;9.50;99.90;;;;;;5134447;27;20190;-55
2021/05/02 06:42:23;;;;;;;10.60;9.53;;;9.40;99.90;;;;;;5131593;27;20338;-55
2021/05/02 06:44:50;;;;;;;11.10;10.00;;;9.30;99.90;;;;;;5131489;27;20201;-55
2021/05/02 06:47:17;;;;;;;10.67;9.03;;;9.30;99.90;;;;;;5133828;27;20601;-55
2021/05/02 06:49:44;;;;;;;11.10;9.77;;;9.30;99.90;;;;;;5133964;27;20309;-54
2021/05/02 06:52:11;;;;;;;11.90;10.70;;;9.30;99.90;;;;;;5134237;27;20282;-55
2021/05/02 06:54:38;;;;;;;11.93;10.53;;;9.30;99.90;;;;;;5133734;27;20208;-52
2021/05/02 06:57:06;;;;;;;12.03;10.73;;;9.30;99.90;;;;;;5133505;27;20298;-54
2021/05/02 06:59:34;;;;;;;12.90;10.97;;;9.40;99.90;;;;;;5133904;27;20350;-56
2021/05/02 07:02:00;;;;;;;12.73;11.27;;;9.40;99.90;;;;;;5133942;27;20214;-53
2021/05/02 07:04:31;;;;;;;16.33;13.23;;;9.40;99.90;;;;;;5133267;27;20202;-54
2021/05/02 07:06:58;;;;;;;13.77;11.83;;;9.40;99.90;;;;;;5133888;27;20262;-55
2021/05/02 07:09:26;;;;;;;14.90;13.13;;;9.40;99.90;;;;;;5133723;27;20218;-55
2021/05/02 07:11:53;;;;;;;14.60;12.70;;;9.50;99.90;;;;;;5133117;27;20230;-55
2021/05/02 07:14:21;;;;;;;14.67;13.07;;;9.50;99.90;;;;;;5133257;27;20226;-54
2021/05/02 07:16:48;;;;;;;15.13;12.80;;;9.50;99.90;;;;;;5132850;27;20214;-54
2021/05/02 07:19:15;;;;;;;15.47;13.07;;;9.60;99.90;;;;;;5133460;27;20207;-54
2021/05/02 07:21:42;;;;;;;16.00;13.40;;;9.60;99.90;;;;;;5133503;27;20294;-55
2021/05/02 07:24:09;;;;;;;15.73;13.30;;;9.40;99.90;;;;;;5133558;27;20203;-53
2021/05/02 07:26:38;;;;;;;16.37;13.27;;;9.40;99.90;;;;;;5133751;27;20206;-54
2021/05/02 07:29:05;;;;;;;16.97;14.23;;;9.30;99.90;;;;;;5133361;27;20221;-55
2021/05/02 07:31:33;;;;;;;15.50;13.70;;;9.40;99.90;;;;;;5133491;27;20205;-51
2021/05/02 07:34:00;;;;;;;16.23;14.37;;;9.50;99.90;;;;;;5133328;27;20234;-55
2021/05/02 07:36:27;;;;;;;15.83;14.03;;;9.50;99.90;;;;;;5133587;27;20226;-55
2021/05/02 07:38:54;;;;;;;17.37;14.37;;;9.50;99.90;;;;;;5139763;27;20710;-53
2021/05/02 07:41:20;;;;;;;18.20;15.40;;;9.60;99.90;;;;;;5133312;28;20228;-51
2021/05/02 07:43:47;;;;;;;17.80;15.00;;;9.80;99.90;;;;;;5133301;28;20238;-54
2021/05/02 07:46:14;;;;;;;19.37;16.13;;;9.90;99.90;;;;;;5133600;28;20198;-54
2021/05/02 07:48:42;;;;;;;17.50;15.27;;;10.00;99.90;;;;;;5133636;28;20554;-55
2021/05/02 07:51:10;;;;;;;17.27;15.30;;;10.10;99.90;;;;;;5133249;28;20271;-55
2021/05/02 07:53:37;;;;;;;17.60;14.13;;;10.00;99.90;;;;;;5133636;28;20281;-54
2021/05/02 07:56:04;;;;;;;18.43;15.57;;;9.80;99.90;;;;;;5132850;28;20820;-54
2021/05/02 07:58:31;;;;;;;17.80;15.37;;;9.80;99.90;;;;;;5132926;28;20203;-57
2021/05/02 08:00:58;;;;;;;17.57;15.00;;;9.80;99.90;;;;;;5133054;28;20234;-56
2021/05/02 08:03:25;;;;;;;19.30;16.27;;;9.90;99.90;;;;;;5132872;28;20646;-56
2021/05/02 08:05:53;;;;;;;20.63;17.10;;;9.90;99.90;;;;;;5133320;28;20222;-57
2021/05/02 08:08:20;;;;;;;21.47;18.33;;;10.00;99.90;;;;;;5133220;28;20234;-57
2021/05/02 08:10:47;;;;;;;23.47;19.47;;;9.90;99.90;;;;;;5133287;28;20236;-57
2021/05/02 08:13:17;;;;;;;25.33;21.10;;;9.80;99.90;;;;;;5133216;28;20213;-57
2021/05/02 08:15:44;;;;;;;26.43;20.93;;;9.60;99.90;;;;;;5132724;28;20231;-55
2021/05/02 08:18:11;;;;;;;27.43;21.53;;;9.60;99.90;;;;;;5133024;28;20235;-53
2021/05/02 08:20:38;;;;;;;24.77;21.63;;;9.60;99.90;;;;;;5132998;28;20277;-57
2021/05/02 08:23:06;;;;;;;28.13;23.40;;;9.60;99.90;;;;;;5133146;28;20194;-54
2021/05/02 08:25:33;;;;;;;28.87;23.20;;;9.60;99.90;;;;;;5133070;28;20230;-55
2021/05/02 08:27:59;;;;;;;27.17;22.77;;;9.60;99.90;;;;;;5134337;27;20209;-54
2021/05/02 08:30:26;;;;;;;29.10;24.00;;;9.60;99.90;;;;;;5137063;27;20211;-55
2021/05/02 08:32:53;;;;;;;29.77;24.50;;;9.50;99.90;;;;;;5136835;27;20206;-55
2021/05/02 08:35:20;;;;;;;30.93;24.33;;;9.40;99.90;;;;;;5136871;27;20205;-56
2021/05/02 08:37:47;;;;;;;30.77;24.67;;;9.40;99.90;;;;;;5136519;27;20206;-53
2021/05/02 08:40:15;;;;;;;30.30;23.83;;;9.40;99.90;;;;;;5136777;27;20286;-54
2021/05/02 08:42:42;;;;;;;30.03;24.53;;;9.40;99.90;;;;;;5136703;27;20198;-55
2021/05/02 08:45:10;;;;;;;30.83;24.30;;;9.40;99.90;;;;;;5136445;27;20293;-54
2021/05/02 08:47:37;;;;;;;31.97;24.43;;;9.40;99.90;;;;;;5136196;27;20294;-56
2021/05/02 08:50:07;;;;;;;33.23;25.60;;;9.40;99.90;;;;;;5136627;27;20215;-58
2021/05/02 08:52:35;;;;;;;33.70;26.13;;;9.40;99.90;;;;;;5136587;27;20198;-58
2021/05/02 08:55:03;;;;;;;29.57;24.13;;;9.50;99.90;;;;;;5136377;27;20693;-58
2021/05/02 08:57:31;;;;;;;30.90;23.87;;;9.50;99.90;;;;;;5136239;27;20230;-56
2021/05/02 08:59:58;;;;;;;32.37;24.10;;;9.50;99.90;;;;;;5136346;27;20190;-56
2021/05/02 09:02:27;;;;;;;33.17;25.83;;;9.50;99.90;;;;;;5136173;27;20552;-53
2021/05/02 09:04:55;;;;;;;31.23;24.23;;;9.50;99.90;;;;;;5136037;27;20202;-55
2021/05/02 09:07:23;;;;;;;30.70;23.87;;;9.50;99.90;;;;;;5136059;27;20271;-55
2021/05/02 09:09:50;;;;;;;32.17;24.97;;;9.50;99.90;;;;;;5136003;27;20210;-53
2021/05/02 09:12:22;;;;;;;30.97;23.73;;;9.50;99.90;;;;;;5136256;27;20287;-53
2021/05/02 09:14:50;;;;;;;31.83;23.87;;;9.40;99.90;;;;;;5135910;27;20230;-55
2021/05/02 09:17:25;;;;;;;34.03;24.47;;;9.30;99.90;;;;;;5135738;27;20194;-56
2021/05/02 09:19:52;;;;;;;32.47;25.13;;;9.30;99.90;;;;;;5135616;27;20191;-53
2021/05/02 09:22:20;;;;;;;33.60;25.97;;;9.10;99.90;;;;;;5135522;27;20261;-51
2021/05/02 09:25:01;;;;;;;33.60;25.90;;;9.10;99.90;;;;;;5135807;27;20202;-54
2021/05/02 09:27:28;;;;;;;33.13;25.20;;;9.20;99.90;;;;;;5135337;27;20729;-51
2021/05/02 09:30:13;;;;;;;33.80;25.00;;;9.30;99.90;;;;;;5135728;27;20225;-57
2021/05/02 09:32:44;;;;;;;30.37;23.17;;;9.40;99.90;;;;;;5135579;27;20183;-55
2021/05/02 09:35:24;;;;;;;30.33;22.73;;;9.40;99.90;;;;;;5135932;27;20183;-52
2021/05/02 09:38:06;;;;;;;32.53;23.83;;;9.50;99.90;;;;;;5135774;27;20345;-52
2021/05/02 09:40:45;;;;;;;30.17;23.17;;;9.40;99.90;;;;;;5134549;27;20716;-56
2021/05/02 09:43:32;;;;;;;29.23;22.60;;;9.40;99.90;;;;;;5135601;27;20193;-57
2021/05/02 09:46:28;;;;;;;27.50;23.30;;;9.30;99.90;;;;;;5135474;27;20222;-55
2021/05/02 09:49:11;;;;;;;30.77;23.40;;;9.30;99.90;;;;;;5117727;27;20206;-55
2021/05/02 09:51:43;;;;;;;29.07;23.10;;;9.30;99.90;;;;;;5135399;27;20233;-54
2021/05/02 09:54:13;;;;;;;29.50;23.43;;;9.30;99.90;;;;;;5135342;27;20278;-56
2021/05/02 09:56:46;;;;;;;30.10;24.20;;;9.10;99.90;;;;;;5135094;27;20218;-55
2021/05/02 09:59:28;;;;;;;33.20;24.73;;;9.20;99.90;;;;;;5134744;27;20627;-54
2021/05/02 10:02:26;;;;;;;30.67;23.47;;;9.30;99.90;;;;;;5134963;27;20274;-54
2021/05/02 10:04:57;;;;;;;29.60;23.53;;;9.30;99.90;;;;;;5135152;27;20266;-53
2021/05/02 10:07:26;;;;;;;27.20;22.47;;;9.20;99.90;;;;;;5135101;27;20194;-56
2021/05/02 10:09:54;;;;;;;31.83;23.97;;;9.20;99.90;;;;;;5134754;27;20793;-56
2021/05/02 10:12:21;;;;;;;27.67;22.47;;;9.20;99.90;;;;;;5135175;27;20309;-55
2021/05/02 10:14:50;;;;;;;31.03;24.40;;;9.20;99.90;;;;;;5134738;27;20223;-57
2021/05/02 10:17:18;;;;;;;28.50;23.43;;;9.20;99.90;;;;;;5135082;27;20568;-59
2021/05/02 10:19:45;;;;;;;27.70;22.37;;;9.20;99.90;;;;;;5134881;27;20198;-57
2021/05/02 10:22:12;;;;;;;27.10;22.67;;;9.20;99.90;;;;;;5135113;27;20289;-57
2021/05/02 10:24:41;;;;;;;28.80;23.47;;;9.20;99.90;;;;;;5134677;27;20849;-56
2021/05/02 10:27:11;;;;;;;25.90;21.27;;;9.10;99.90;;;;;;5135433;27;20262;-55
2021/05/02 10:29:41;;;;;;;28.40;23.13;;;9.10;99.90;;;;;;5135205;27;20597;-56
2021/05/02 10:32:10;;;;;;;29.93;23.73;;;9.10;99.90;;;;;;5134343;27;20234;-57
2021/05/02 10:34:40;;;;;;;24.27;20.97;;;9.10;99.90;;;;;;5134349;27;20213;-53
2021/05/02 10:37:32;;;;;;;25.20;20.83;;;9.10;99.90;;;;;;5134507;27;20297;-55
2021/05/02 10:40:03;;;;;;;24.63;19.47;;;9.10;99.90;;;;;;5133942;27;20621;-57
2021/05/02 10:42:50;;;;;;;24.63;19.93;;;9.10;99.90;;;;;;5134500;27;20183;-54
2021/05/02 10:45:46;;;;;;;24.73;20.10;;;9.00;99.90;;;;;;5134126;27;20965;-54
2021/05/02 10:48:44;;;;;;;22.17;19.30;;;9.10;99.90;;;;;;5134161;27;20236;-55
2021/05/02 10:51:26;;;;;;;23.03;19.37;;;9.10;99.90;;;;;;5133761;27;20654;-56
2021/05/02 10:54:11;;;;;;;21.60;18.80;;;9.00;99.90;;;;;;5134215;27;20255;-55
2021/05/02 10:56:55;;;;;;;22.43;19.03;;;9.10;99.90;;;;;;5134174;27;20185;-52
2021/05/02 10:59:24;;;;;;;20.23;17.47;;;9.10;99.90;;;;;;5133995;27;20278;-56
2021/05/02 11:01:52;;;;;;;21.07;18.77;;;9.10;99.90;;;;;;5133908;27;20203;-54
2021/05/02 11:04:20;;;;;;;20.67;18.27;;;9.20;99.90;;;;;;5133515;27;20199;-54
2021/05/02 11:06:53;;;;;;;24.37;19.90;;;9.20;99.90;;;;;;5133684;27;20199;-53
2021/05/02 11:09:27;;;;;;;20.50;17.83;;;9.30;99.90;;;;;;5133246;27;20489;-55
2021/05/02 11:11:56;;;;;;;21.40;18.47;;;9.30;99.90;;;;;;5133889;27;20640;-53
2021/05/02 11:14:33;;;;;;;21.77;18.70;;;9.20;99.90;;;;;;5133276;27;20255;-56
2021/05/02 11:17:21;;;;;;;19.50;17.17;;;9.10;99.90;;;;;;5133869;27;20214;-54
2021/05/02 11:19:48;;;;;;;21.20;18.47;;;9.10;99.90;;;;;;5133704;27;20230;-56
2021/05/02 11:22:17;;;;;;;21.93;18.53;;;9.10;99.90;;;;;;5133694;27;20302;-54
2021/05/02 11:24:59;;;;;;;23.50;19.40;;;9.00;99.90;;;;;;5133735;27;20672;-54
2021/05/02 11:27:48;;;;;;;23.53;19.30;;;8.90;99.90;;;;;;5132815;27;20277;-55
2021/05/02 11:30:21;;;;;;;24.03;19.83;;;8.90;99.90;;;;;;5133172;27;20207;-53
2021/05/02 11:32:49;;;;;;;24.57;19.13;;;9.10;99.90;;;;;;5133420;27;20278;-56
2021/05/02 11:35:20;;;;;;;22.10;19.03;;;9.20;99.90;;;;;;5133299;27;20203;-51
2021/05/02 11:37:53;;;;;;;23.53;20.10;;;9.30;99.90;;;;;;5133604;27;20203;-54
2021/05/02 11:40:37;;;;;;;20.13;17.93;;;9.30;99.90;;;;;;5112909;28;20182;-55
2021/05/02 11:43:11;;;;;;;20.67;18.27;;;9.50;99.90;;;;;;5112233;28;20211;-55
2021/05/02 11:45:48;;;;;;;22.33;18.63;;;9.60;99.90;;;;;;5112575;28;20723;-55
2021/05/02 11:48:23;;;;;;;21.53;18.57;;;9.60;99.90;;;;;;5112269;28;20639;-54
2021/05/02 11:50:54;;;;;;;19.90;17.80;;;9.60;99.90;;;;;;5112542;28;20215;-55
2021/05/02 11:53:32;;;;;;;21.20;17.93;;;9.60;99.90;;;;;;5112505;28;20281;-56
2021/05/02 11:55:59;;;;;;;20.23;18.03;;;9.70;99.90;;;;;;5134294;27;20289;-56
2021/05/02 11:58:27;;;;;;;20.40;17.37;;;9.70;99.90;;;;;;5153663;27;20274;-56
2021/05/02 12:00:54;;;;;;;19.93;17.33;;;9.60;99.90;;;;;;5153497;27;20570;-55
2021/05/02 12:03:40;;;;;;;18.90;16.73;;;9.70;99.90;;;;;;5155245;27;20209;-57
2021/05/02 12:06:08;;;;;;;17.03;15.23;;;9.70;99.90;;;;;;5157877;27;20710;-53
2021/05/02 12:08:36;;;;;;;20.03;17.30;;;9.70;99.90;;;;;;5157584;27;20210;-53
2021/05/02 12:11:05;;;;;;;17.50;15.70;;;9.80;99.90;;;;;;5157356;27;20246;-57
2021/05/02 12:13:34;;;;;;;16.87;14.93;;;9.90;99.90;;;;;;5157802;27;20616;-53
2021/05/02 12:16:06;;;;;;;17.90;14.93;;;10.00;99.90;;;;;;5157327;27;20236;-54
2021/05/02 12:18:41;;;;;;;16.17;14.50;;;10.00;99.90;;;;;;5145561;27;20285;-56
2021/05/02 12:21:12;;;;;;;16.73;14.77;;;10.00;99.90;;;;;;5136717;27;20619;-54
2021/05/02 12:23:41;;;;;;;22.20;15.27;;;10.00;99.90;;;;;;5137049;27;20234;-54
2021/05/02 12:26:08;;;;;;;17.50;15.70;;;10.00;99.90;;;;;;5137302;27;20230;-56
2021/05/02 12:28:36;;;;;;;17.90;16.00;;;10.00;99.90;;;;;;5136953;27;20262;-56
2021/05/02 12:31:04;;;;;;;18.07;15.23;;;10.00;99.90;;;;;;5136735;27;20656;-55
2021/05/02 12:33:34;;;;;;;17.93;15.73;;;10.00;99.90;;;;;;5136715;27;20199;-56
2021/05/02 12:36:03;;;;;;;18.23;16.27;;;10.10;99.90;;;;;;5137063;27;20217;-54
2021/05/02 12:38:30;;;;;;;20.50;18.40;;;10.20;99.90;;;;;;5136806;27;20229;-53
2021/05/02 12:40:58;;;;;;;18.03;16.13;;;10.30;99.90;;;;;;5137599;27;20234;-57
2021/05/02 12:43:27;;;;;;;19.90;17.80;;;10.30;99.90;;;;;;5138353;27;20309;-58
2021/05/02 12:45:54;;;;;;;19.57;17.57;;;10.40;99.90;;;;;;5138107;27;20247;-55
2021/05/02 12:48:29;;;;;;;20.60;18.20;;;10.40;99.90;;;;;;5136218;27;20681;-54